sensor_id;sensor_type;location;lat;lon;timestamp;temperature;humidity
30851;DHT22;17567;48.382;9.102;2023-06-19T00:04:30;19.70;99.90
30851;DHT22;17567;48.382;9.102;2023-06-19T00:09:31;19.70;99.90
30851;DHT22;17567;48.382;9.102;2023-06-19T00:14:32;19.60;99.90
30851;DHT22;17567;48.382;9.102;2023-06-19T00:19:33;19.60;99.90
30851;DHT22;17567;48.382;9.102;2023-06-19T00:24:36;19.60;99.90
30851;DHT22;17567;48.382;9.102;2023-06-19T00:29:37;19.50;99.90
30851;DHT22;17567;48.382;9.102;2023-06-19T00:34:37;19.60;99.90
30851;DHT22;17567;48.382;9.102;2023-06-19T00:39:39;19.70;99.90
30851;DHT22;17567;48.382;9.102;2023-06-19T00:44:40;19.70;99.90
30851;DHT22;17567;48.382;9.102;2023-06-19T00:49:40;19.70;99.90
30851;DHT22;17567;48.382;9.102;2023-06-19T00:54:41;19.60;99.90
30851;DHT22;17567;48.382;9.102;2023-06-19T00:59:42;19.60;99.90
30851;DHT22;17567;48.382;9.102;2023-06-19T01:04:42;19.50;99.90
30851;DHT22;17567;48.382;9.102;2023-06-19T01:09:56;19.30;99.90
30851;DHT22;17567;48.382;9.102;2023-06-19T01:15:02;19.30;99.90
30851;DHT22;17567;48.382;9.102;2023-06-19T01:20:04;19.30;99.90
30851;DHT22;17567;48.382;9.102;2023-06-19T01:25:11;19.20;99.90
30851;DHT22;17567;48.382;9.102;2023-06-19T01:30:14;18.90;99.90
30851;DHT22;17567;48.382;9.102;2023-06-19T01:35:19;19.40;99.90
30851;DHT22;17567;48.382;9.102;2023-06-19T01:40:20;19.90;99.90
30851;DHT22;17567;48.382;9.102;2023-06-19T01:45:25;20.30;99.90
30851;DHT22;17567;48.382;9.102;2023-06-19T01:50:26;20.20;99.90
30851;DHT22;17567;48.382;9.102;2023-06-19T01:55:26;20.30;99.90
30851;DHT22;17567;48.382;9.102;2023-06-19T02:00:27;20.30;99.90
30851;DHT22;17567;48.382;9.102;2023-06-19T02:05:28;20.30;99.90
30851;DHT22;17567;48.382;9.102;2023-06-19T02:10:28;20.30;99.90
30851;DHT22;17567;48.382;9.102;2023-06-19T02:15:29;20.30;99.90
30851;DHT22;17567;48.382;9.102;2023-06-19T02:20:29;20.30;99.90
30851;DHT22;17567;48.382;9.102;2023-06-19T02:25:30;20.30;99.90
30851;DHT22;17567;48.382;9.102;2023-06-19T02:30:31;20.30;99.90
30851;DHT22;17567;48.382;9.102;2023-06-19T02:35:31;20.20;99.90
30851;DHT22;17567;48.382;9.102;2023-06-19T02:40:32;20.10;99.90
30851;DHT22;17567;48.382;9.102;2023-06-19T02:45:32;20.00;99.90
30851;DHT22;17567;48.382;9.102;2023-06-19T02:50:33;20.00;99.90
30851;DHT22;17567;48.382;9.102;2023-06-19T02:55:34;19.90;99.90
30851;DHT22;17567;48.382;9.102;2023-06-19T03:00:35;19.80;99.90
30851;DHT22;17567;48.382;9.102;2023-06-19T03:05:35;19.70;99.90
30851;DHT22;17567;48.382;9.102;2023-06-19T03:10:36;19.70;99.90
30851;DHT22;17567;48.382;9.102;2023-06-19T03:15:36;19.70;99.90
30851;DHT22;17567;48.382;9.102;2023-06-19T03:20:37;19.60;99.90
30851;DHT22;17567;48.382;9.102;2023-06-19T03:25:38;19.60;99.90
30851;DHT22;17567;48.382;9.102;2023-06-19T03:30:43;19.60;99.90
30851;DHT22;17567;48.382;9.102;2023-06-19T03:35:43;19.50;99.90
30851;DHT22;17567;48.382;9.102;2023-06-19T03:40:44;19.60;99.90
30851;DHT22;17567;48.382;9.102;2023-06-19T03:45:45;19.60;99.90
30851;DHT22;17567;48.382;9.102;2023-06-19T03:50:46;19.60;99.90
30851;DHT22;17567;48.382;9.102;2023-06-19T03:55:46;19.70;99.90
30851;DHT22;17567;48.382;9.102;2023-06-19T04:00:47;19.70;99.90
30851;DHT22;17567;48.382;9.102;2023-06-19T04:05:48;19.70;99.90
30851;DHT22;17567;48.382;9.102;2023-06-19T04:10:48;19.70;99.90
30851;DHT22;17567;48.382;9.102;2023-06-19T04:15:49;19.60;99.90
30851;DHT22;17567;48.382;9.102;2023-06-19T04:20:49;19.70;99.90
30851;DHT22;17567;48.382;9.102;2023-06-19T04:25:50;19.60;99.90
30851;DHT22;17567;48.382;9.102;2023-06-19T04:30:51;19.60;99.90
30851;DHT22;17567;48.382;9.102;2023-06-19T04:36:00;19.50;99.90
30851;DHT22;17567;48.382;9.102;2023-06-19T04:41:01;19.50;99.90
30851;DHT22;17567;48.382;9.102;2023-06-19T04:46:01;19.40;99.90
30851;DHT22;17567;48.382;9.102;2023-06-19T04:51:04;19.30;99.90
30851;DHT22;17567;48.382;9.102;2023-06-19T04:56:04;19.20;99.90
30851;DHT22;17567;48.382;9.102;2023-06-19T05:01:05;19.20;99.90
30851;DHT22;17567;48.382;9.102;2023-06-19T05:06:06;19.10;99.90
30851;DHT22;17567;48.382;9.102;2023-06-19T05:11:08;19.10;99.90
30851;DHT22;17567;48.382;9.102;2023-06-19T05:16:10;19.00;99.90
30851;DHT22;17567;48.382;9.102;2023-06-19T05:21:10;19.10;99.90
30851;DHT22;17567;48.382;9.102;2023-06-19T05:26:11;19.00;99.90
30851;DHT22;17567;48.382;9.102;2023-06-19T05:31:11;19.00;99.90
30851;DHT22;17567;48.382;9.102;2023-06-19T05:36:12;19.00;99.90
30851;DHT22;17567;48.382;9.102;2023-06-19T05:41:13;19.10;99.90
30851;DHT22;17567;48.382;9.102;2023-06-19T05:46:14;19.20;99.90
30851;DHT22;17567;48.382;9.102;2023-06-19T05:51:15;19.30;99.90
30851;DHT22;17567;48.382;9.102;2023-06-19T05:56:16;19.60;99.90
30851;DHT22;17567;48.382;9.102;2023-06-19T06:01:17;19.70;99.90
30851;DHT22;17567;48.382;9.102;2023-06-19T06:11:22;20.30;99.90
30851;DHT22;17567;48.382;9.102;2023-06-19T06:16:22;20.20;99.90
30851;DHT22;17567;48.382;9.102;2023-06-19T06:21:23;20.40;99.90
30851;DHT22;17567;48.382;9.102;2023-06-19T06:26:23;20.50;99.90
30851;DHT22;17567;48.382;9.102;2023-06-19T06:31:24;20.70;99.90
30851;DHT22;17567;48.382;9.102;2023-06-19T06:36:25;20.80;99.90
30851;DHT22;17567;48.382;9.102;2023-06-19T06:41:25;20.90;99.90
30851;DHT22;17567;48.382;9.102;2023-06-19T06:46:26;21.00;99.90
30851;DHT22;17567;48.382;9.102;2023-06-19T06:51:26;21.20;99.90
30851;DHT22;17567;48.382;9.102;2023-06-19T06:56:27;21.20;99.90
30851;DHT22;17567;48.382;9.102;2023-06-19T07:01:28;21.40;99.90
30851;DHT22;17567;48.382;9.102;2023-06-19T07:06:28;21.40;99.90
30851;DHT22;17567;48.382;9.102;2023-06-19T07:11:29;21.40;99.90
30851;DHT22;17567;48.382;9.102;2023-06-19T07:16:29;21.60;99.90
30851;DHT22;17567;48.382;9.102;2023-06-19T07:21:31;21.70;99.90
30851;DHT22;17567;48.382;9.102;2023-06-19T07:26:31;21.60;99.90
30851;DHT22;17567;48.382;9.102;2023-06-19T07:31:34;21.80;99.90
30851;DHT22;17567;48.382;9.102;2023-06-19T07:36:35;22.00;99.90
30851;DHT22;17567;48.382;9.102;2023-06-19T07:41:36;22.00;99.90
30851;DHT22;17567;48.382;9.102;2023-06-19T19:41:27;20.90;99.90
30851;DHT22;17567;48.382;9.102;2023-06-19T19:46:27;20.60;99.90
30851;DHT22;17567;48.382;9.102;2023-06-19T19:51:28;20.70;99.90
30851;DHT22;17567;48.382;9.102;2023-06-19T19:56:29;20.60;99.90
30851;DHT22;17567;48.382;9.102;2023-06-19T20:01:29;20.60;99.90
30851;DHT22;17567;48.382;9.102;2023-06-19T20:06:30;20.60;99.90
30851;DHT22;17567;48.382;9.102;2023-06-19T20:11:31;20.50;99.90
30851;DHT22;17567;48.382;9.102;2023-06-19T20:16:33;20.40;99.90
30851;DHT22;17567;48.382;9.102;2023-06-19T20:21:33;20.10;99.90
30851;DHT22;17567;48.382;9.102;2023-06-19T20:26:34;20.10;99.90
30851;DHT22;17567;48.382;9.102;2023-06-19T20:31:34;20.00;99.90
30851;DHT22;17567;48.382;9.102;2023-06-19T20:36:35;19.80;99.90
30851;DHT22;17567;48.382;9.102;2023-06-19T20:41:36;19.70;99.90
30851;DHT22;17567;48.382;9.102;2023-06-19T20:46:38;19.70;99.90
30851;DHT22;17567;48.382;9.102;2023-06-19T20:51:38;19.50;99.90
30851;DHT22;17567;48.382;9.102;2023-06-19T20:56:39;19.60;99.90
30851;DHT22;17567;48.382;9.102;2023-06-19T21:01:39;19.80;99.90
30851;DHT22;17567;48.382;9.102;2023-06-19T21:06:40;19.80;99.90
30851;DHT22;17567;48.382;9.102;2023-06-19T21:11:41;19.70;99.90
30851;DHT22;17567;48.382;9.102;2023-06-19T21:16:42;19.50;99.90
30851;DHT22;17567;48.382;9.102;2023-06-19T21:21:42;19.40;99.90
30851;DHT22;17567;48.382;9.102;2023-06-19T21:26:43;19.50;99.90
30851;DHT22;17567;48.382;9.102;2023-06-19T21:31:44;19.50;99.90
30851;DHT22;17567;48.382;9.102;2023-06-19T21:36:44;19.50;99.90
30851;DHT22;17567;48.382;9.102;2023-06-19T21:41:45;19.40;99.90
30851;DHT22;17567;48.382;9.102;2023-06-19T21:46:46;19.50;99.90
30851;DHT22;17567;48.382;9.102;2023-06-19T21:51:46;19.50;99.90
30851;DHT22;17567;48.382;9.102;2023-06-19T21:56:47;19.50;99.90
30851;DHT22;17567;48.382;9.102;2023-06-19T22:01:47;19.50;99.90
30851;DHT22;17567;48.382;9.102;2023-06-19T22:06:48;19.50;99.90
30851;DHT22;17567;48.382;9.102;2023-06-19T22:11:48;19.40;99.90
30851;DHT22;17567;48.382;9.102;2023-06-19T22:16:49;19.30;99.90
30851;DHT22;17567;48.382;9.102;2023-06-19T22:21:50;19.30;99.90
30851;DHT22;17567;48.382;9.102;2023-06-19T22:26:50;19.30;99.90
30851;DHT22;17567;48.382;9.102;2023-06-19T22:31:51;19.30;99.90
30851;DHT22;17567;48.382;9.102;2023-06-19T22:36:52;19.30;99.90
30851;DHT22;17567;48.382;9.102;2023-06-19T22:41:52;19.30;99.90
30851;DHT22;17567;48.382;9.102;2023-06-19T22:46:53;19.30;99.90
30851;DHT22;17567;48.382;9.102;2023-06-19T22:51:54;19.30;99.90
30851;DHT22;17567;48.382;9.102;2023-06-19T22:56:55;19.20;99.90
30851;DHT22;17567;48.382;9.102;2023-06-19T23:01:56;19.20;99.90
30851;DHT22;17567;48.382;9.102;2023-06-19T23:06:56;19.20;99.90
30851;DHT22;17567;48.382;9.102;2023-06-19T23:12:01;19.10;99.90
30851;DHT22;17567;48.382;9.102;2023-06-19T23:17:03;19.10;99.90
30851;DHT22;17567;48.382;9.102;2023-06-19T23:22:04;19.00;99.90
30851;DHT22;17567;48.382;9.102;2023-06-19T23:27:09;18.90;99.90
30851;DHT22;17567;48.382;9.102;2023-06-19T23:32:09;19.00;99.90
30851;DHT22;17567;48.382;9.102;2023-06-19T23:37:10;19.10;99.90
30851;DHT22;17567;48.382;9.102;2023-06-19T23:42:11;19.10;99.90
30851;DHT22;17567;48.382;9.102;2023-06-19T23:47:12;19.10;99.90
30851;DHT22;17567;48.382;9.102;2023-06-19T23:52:12;19.10;99.90
30851;DHT22;17567;48.382;9.102;2023-06-19T23:57:13;19.10;99.90
